Abralaite, Argentina
Current Conditions -  °F | °C
As of 12:00 PM on Saturday 22 Nov 2014 (Local Time) from SASJ Reporting Station
Overcast Overcast  
Wind Chill: 68°   Ceiling: 10000
Heat Index: 68°   Visibility: 6mi
Dew Point: 57°   Wind: 3mph
Humidity: 68%   Direction: 180°S
Pressure: 30.09"   Gusts: NA
Location:  23.2°S, 65.74°W
Report Text: SASJ 221500Z 18003KT 100V240 9999 SCT025OVC100 20/14 Q1019
Loading
Personal Weather Stations






























Interactive Weather Map New forecast layout! Learn more

10-Day Weather Forecast

Advertisements
Track Severe Weather on mobile